sensor_id;sensor_type;location;lat;lon;timestamp;pressure;altitude;pressure_sealevel;temperature;humidity
51986;BME280;38002;53.296;6.600;2024-02-23T00:04:05;98306.56;;;4.90;100.00
51986;BME280;38002;53.296;6.600;2024-02-23T00:09:07;98322.53;;;4.91;100.00
51986;BME280;38002;53.296;6.600;2024-02-23T00:14:08;98345.72;;;4.92;100.00
51986;BME280;38002;53.296;6.600;2024-02-23T00:19:08;98356.97;;;4.96;100.00
51986;BME280;38002;53.296;6.600;2024-02-23T00:24:12;98359.69;;;4.96;100.00
51986;BME280;38002;53.296;6.600;2024-02-23T00:29:12;98364.84;;;4.97;100.00
51986;BME280;38002;53.296;6.600;2024-02-23T00:34:13;98384.72;;;4.96;100.00
51986;BME280;38002;53.296;6.600;2024-02-23T00:39:14;98405.06;;;4.99;100.00
51986;BME280;38002;53.296;6.600;2024-02-23T00:44:14;98419.16;;;5.01;100.00
51986;BME280;38002;53.296;6.600;2024-02-23T00:49:15;98416.31;;;5.02;100.00
51986;BME280;38002;53.296;6.600;2024-02-23T00:54:15;98429.22;;;5.07;100.00
51986;BME280;38002;53.296;6.600;2024-02-23T00:59:16;98455.13;;;5.08;100.00
51986;BME280;38002;53.296;6.600;2024-02-23T01:04:16;98481.22;;;5.08;100.00
51986;BME280;38002;53.296;6.600;2024-02-23T01:09:17;98498.09;;;5.01;100.00
51986;BME280;38002;53.296;6.600;2024-02-23T01:14:20;98493.09;;;4.98;100.00
51986;BME280;38002;53.296;6.600;2024-02-23T01:19:21;98496.16;;;4.95;100.00
51986;BME280;38002;53.296;6.600;2024-02-23T01:24:21;98524.94;;;4.95;100.00
51986;BME280;38002;53.296;6.600;2024-02-23T01:29:22;98528.81;;;4.92;100.00
51986;BME280;38002;53.296;6.600;2024-02-23T01:34:22;98544.81;;;4.94;100.00
51986;BME280;38002;53.296;6.600;2024-02-23T01:39:23;98546.78;;;5.00;100.00
51986;BME280;38002;53.296;6.600;2024-02-23T01:44:23;98569.97;;;5.01;100.00
51986;BME280;38002;53.296;6.600;2024-02-23T01:49:24;98582.97;;;4.97;100.00
51986;BME280;38002;53.296;6.600;2024-02-23T01:54:29;98590.59;;;4.94;100.00
51986;BME280;38002;53.296;6.600;2024-02-23T01:59:31;98581.56;;;4.87;100.00
51986;BME280;38002;53.296;6.600;2024-02-23T02:04:31;98597.53;;;4.88;100.00
51986;BME280;38002;53.296;6.600;2024-02-23T02:09:32;98599.03;;;4.91;100.00
51986;BME280;38002;53.296;6.600;2024-02-23T02:14:32;98606.84;;;5.00;100.00
51986;BME280;38002;53.296;6.600;2024-02-23T02:19:33;98609.66;;;5.07;100.00
51986;BME280;38002;53.296;6.600;2024-02-23T02:24:34;98630.28;;;5.15;100.00
51986;BME280;38002;53.296;6.600;2024-02-23T02:29:35;98634.50;;;5.17;100.00
51986;BME280;38002;53.296;6.600;2024-02-23T02:34:36;98644.44;;;5.17;100.00
51986;BME280;38002;53.296;6.600;2024-02-23T02:39:36;98646.28;;;5.16;100.00
51986;BME280;38002;53.296;6.600;2024-02-23T02:44:37;98658.53;;;5.19;100.00
51986;BME280;38002;53.296;6.600;2024-02-23T02:49:39;98672.31;;;5.24;100.00
51986;BME280;38002;53.296;6.600;2024-02-23T02:54:40;98659.78;;;5.31;100.00
51986;BME280;38002;53.296;6.600;2024-02-23T02:59:40;98681.28;;;5.39;100.00
51986;BME280;38002;53.296;6.600;2024-02-23T03:04:48;98683.44;;;5.43;100.00
51986;BME280;38002;53.296;6.600;2024-02-23T03:09:48;98689.47;;;5.45;100.00
51986;BME280;38002;53.296;6.600;2024-02-23T03:14:51;98704.63;;;5.46;100.00
51986;BME280;38002;53.296;6.600;2024-02-23T03:19:51;98709.16;;;5.46;100.00
51986;BME280;38002;53.296;6.600;2024-02-23T03:24:51;98727.38;;;5.44;100.00
51986;BME280;38002;53.296;6.600;2024-02-23T03:29:52;98724.09;;;5.34;100.00
51986;BME280;38002;53.296;6.600;2024-02-23T03:34:52;98733.25;;;5.25;100.00
51986;BME280;38002;53.296;6.600;2024-02-23T03:39:52;98736.50;;;5.20;100.00
51986;BME280;38002;53.296;6.600;2024-02-23T03:44:53;98742.72;;;5.21;100.00
51986;BME280;38002;53.296;6.600;2024-02-23T03:49:54;98748.97;;;5.21;100.00
51986;BME280;38002;53.296;6.600;2024-02-23T03:54:54;98759.53;;;5.23;100.00
51986;BME280;38002;53.296;6.600;2024-02-23T03:59:57;98755.84;;;5.24;100.00
51986;BME280;38002;53.296;6.600;2024-02-23T04:04:57;98750.97;;;5.19;100.00
51986;BME280;38002;53.296;6.600;2024-02-23T04:09:58;98765.97;;;5.22;100.00
51986;BME280;38002;53.296;6.600;2024-02-23T04:14:58;98777.28;;;5.17;100.00
51986;BME280;38002;53.296;6.600;2024-02-23T04:20:00;98785.69;;;5.14;100.00
51986;BME280;38002;53.296;6.600;2024-02-23T04:25:05;98805.75;;;5.12;100.00
51986;BME280;38002;53.296;6.600;2024-02-23T04:30:06;98806.94;;;5.09;100.00
51986;BME280;38002;53.296;6.600;2024-02-23T04:35:07;98820.75;;;5.06;100.00
51986;BME280;38002;53.296;6.600;2024-02-23T04:40:08;98836.09;;;5.06;100.00
51986;BME280;38002;53.296;6.600;2024-02-23T04:45:08;98835.25;;;5.05;100.00
51986;BME280;38002;53.296;6.600;2024-02-23T04:50:10;98848.22;;;5.01;100.00
51986;BME280;38002;53.296;6.600;2024-02-23T04:55:10;98860.84;;;5.01;100.00
51986;BME280;38002;53.296;6.600;2024-02-23T05:00:11;98864.06;;;4.96;100.00
51986;BME280;38002;53.296;6.600;2024-02-23T05:05:11;98875.88;;;4.95;100.00
51986;BME280;38002;53.296;6.600;2024-02-23T05:10:12;98889.66;;;4.92;100.00
51986;BME280;38002;53.296;6.600;2024-02-23T05:15:13;98879.94;;;4.91;100.00
51986;BME280;38002;53.296;6.600;2024-02-23T05:20:14;98880.09;;;4.90;100.00
51986;BME280;38002;53.296;6.600;2024-02-23T05:25:14;98888.19;;;4.90;100.00
51986;BME280;38002;53.296;6.600;2024-02-23T05:30:15;98892.06;;;4.87;100.00
51986;BME280;38002;53.296;6.600;2024-02-23T05:35:15;98906.72;;;4.85;100.00
51986;BME280;38002;53.296;6.600;2024-02-23T05:40:16;98891.91;;;4.81;100.00
51986;BME280;38002;53.296;6.600;2024-02-23T05:45:16;98897.97;;;4.75;100.00
51986;BME280;38002;53.296;6.600;2024-02-23T05:50:17;98895.66;;;4.72;100.00
51986;BME280;38002;53.296;6.600;2024-02-23T05:55:17;98908.44;;;4.70;100.00
51986;BME280;38002;53.296;6.600;2024-02-23T06:00:18;98924.09;;;4.66;100.00
51986;BME280;38002;53.296;6.600;2024-02-23T06:05:19;98927.81;;;4.65;100.00
51986;BME280;38002;53.296;6.600;2024-02-23T06:10:19;98925.97;;;4.66;100.00
51986;BME280;38002;53.296;6.600;2024-02-23T06:15:20;98918.22;;;4.63;100.00
51986;BME280;38002;53.296;6.600;2024-02-23T06:20:20;98919.41;;;4.60;100.00
51986;BME280;38002;53.296;6.600;2024-02-23T06:25:20;98933.72;;;4.61;100.00
51986;BME280;38002;53.296;6.600;2024-02-23T06:30:21;98927.63;;;4.58;100.00
51986;BME280;38002;53.296;6.600;2024-02-23T06:35:21;98950.19;;;4.57;100.00
51986;BME280;38002;53.296;6.600;2024-02-23T06:40:22;98942.44;;;4.54;100.00
51986;BME280;38002;53.296;6.600;2024-02-23T06:45:22;98952.22;;;4.55;100.00
51986;BME280;38002;53.296;6.600;2024-02-23T06:50:26;98962.13;;;4.55;100.00
51986;BME280;38002;53.296;6.600;2024-02-23T06:55:26;98977.44;;;4.54;100.00
51986;BME280;38002;53.296;6.600;2024-02-23T07:00:26;98971.56;;;4.59;100.00
51986;BME280;38002;53.296;6.600;2024-02-23T07:05:27;98974.56;;;4.64;100.00
51986;BME280;38002;53.296;6.600;2024-02-23T07:10:28;98980.09;;;4.71;100.00
51986;BME280;38002;53.296;6.600;2024-02-23T07:15:29;98977.25;;;4.72;100.00
51986;BME280;38002;53.296;6.600;2024-02-23T07:20:30;98969.16;;;4.72;100.00
51986;BME280;38002;53.296;6.600;2024-02-23T07:25:30;98981.63;;;4.73;100.00
51986;BME280;38002;53.296;6.600;2024-02-23T07:30:31;98996.78;;;4.74;100.00
51986;BME280;38002;53.296;6.600;2024-02-23T07:35:31;99011.38;;;4.80;100.00
51986;BME280;38002;53.296;6.600;2024-02-23T07:40:32;99014.06;;;4.88;100.00
51986;BME280;38002;53.296;6.600;2024-02-23T07:45:32;99016.78;;;4.96;100.00
51986;BME280;38002;53.296;6.600;2024-02-23T07:50:34;99020.44;;;5.03;100.00
51986;BME280;38002;53.296;6.600;2024-02-23T07:55:34;99031.88;;;5.13;100.00
51986;BME280;38002;53.296;6.600;2024-02-23T08:00:35;99030.31;;;5.19;100.00
51986;BME280;38002;53.296;6.600;2024-02-23T08:05:38;99033.84;;;5.27;100.00
51986;BME280;38002;53.296;6.600;2024-02-23T08:10:38;99033.31;;;5.32;100.00
51986;BME280;38002;53.296;6.600;2024-02-23T08:15:39;99032.31;;;5.33;100.00
51986;BME280;38002;53.296;6.600;2024-02-23T08:20:39;99035.81;;;5.41;100.00
51986;BME280;38002;53.296;6.600;2024-02-23T08:25:40;99052.47;;;5.45;100.00
51986;BME280;38002;53.296;6.600;2024-02-23T08:30:41;99061.06;;;5.48;100.00
51986;BME280;38002;53.296;6.600;2024-02-23T08:35:41;99041.00;;;5.51;100.00
51986;BME280;38002;53.296;6.600;2024-02-23T08:40:42;99045.03;;;5.55;100.00
51986;BME280;38002;53.296;6.600;2024-02-23T08:45:45;99034.06;;;5.57;100.00
51986;BME280;38002;53.296;6.600;2024-02-23T08:50:45;99041.81;;;5.60;100.00
51986;BME280;38002;53.296;6.600;2024-02-23T08:55:46;99032.72;;;5.61;100.00
51986;BME280;38002;53.296;6.600;2024-02-23T09:00:46;99031.34;;;5.65;100.00
51986;BME280;38002;53.296;6.600;2024-02-23T09:05:47;99031.47;;;5.71;100.00
51986;BME280;38002;53.296;6.600;2024-02-23T09:10:48;99026.88;;;5.80;100.00
51986;BME280;38002;53.296;6.600;2024-02-23T09:15:48;99026.88;;;5.88;97.37
51986;BME280;38002;53.296;6.600;2024-02-23T09:20:49;99027.13;;;6.01;98.68
51986;BME280;38002;53.296;6.600;2024-02-23T09:25:49;99047.00;;;6.08;99.48
51986;BME280;38002;53.296;6.600;2024-02-23T09:30:50;99049.34;;;6.11;98.88
51986;BME280;38002;53.296;6.600;2024-02-23T09:35:50;99053.03;;;6.10;99.18
51986;BME280;38002;53.296;6.600;2024-02-23T09:40:51;99061.81;;;6.12;100.00
51986;BME280;38002;53.296;6.600;2024-02-23T09:45:52;99065.84;;;6.16;98.60
51986;BME280;38002;53.296;6.600;2024-02-23T09:50:53;99070.38;;;6.16;98.92
51986;BME280;38002;53.296;6.600;2024-02-23T09:55:59;99074.94;;;6.15;98.73
51986;BME280;38002;53.296;6.600;2024-02-23T10:01:02;99071.88;;;6.18;96.34
51986;BME280;38002;53.296;6.600;2024-02-23T10:06:02;99061.16;;;6.33;95.49
51986;BME280;38002;53.296;6.600;2024-02-23T10:11:03;99048.03;;;6.53;97.09
51986;BME280;38002;53.296;6.600;2024-02-23T10:16:05;99041.66;;;6.68;94.46
51986;BME280;38002;53.296;6.600;2024-02-23T10:21:05;99044.94;;;6.78;95.72
51986;BME280;38002;53.296;6.600;2024-02-23T10:26:07;99048.63;;;7.00;95.83
51986;BME280;38002;53.296;6.600;2024-02-23T10:31:08;99054.91;;;7.15;94.84
51986;BME280;38002;53.296;6.600;2024-02-23T10:36:09;99052.00;;;7.17;94.48
51986;BME280;38002;53.296;6.600;2024-02-23T10:41:13;99061.88;;;7.10;94.16
51986;BME280;38002;53.296;6.600;2024-02-23T10:46:18;99060.94;;;7.03;94.17
51986;BME280;38002;53.296;6.600;2024-02-23T10:51:21;99069.69;;;6.90;92.95
51986;BME280;38002;53.296;6.600;2024-02-23T10:56:21;99081.03;;;6.86;91.94
51986;BME280;38002;53.296;6.600;2024-02-23T11:01:26;99081.19;;;6.84;95.19
51986;BME280;38002;53.296;6.600;2024-02-23T11:06:27;99071.78;;;6.80;92.22
51986;BME280;38002;53.296;6.600;2024-02-23T11:11:28;99075.19;;;6.74;93.14
51986;BME280;38002;53.296;6.600;2024-02-23T11:16:31;99076.78;;;6.68;93.88
51986;BME280;38002;53.296;6.600;2024-02-23T11:21:38;99074.78;;;6.62;95.94
51986;BME280;38002;53.296;6.600;2024-02-23T11:26:38;99096.63;;;6.53;95.19
51986;BME280;38002;53.296;6.600;2024-02-23T11:31:44;99089.06;;;6.48;96.56
51986;BME280;38002;53.296;6.600;2024-02-23T11:36:50;99089.84;;;6.34;98.38
51986;BME280;38002;53.296;6.600;2024-02-23T11:41:52;99087.72;;;6.21;99.41
51986;BME280;38002;53.296;6.600;2024-02-23T11:46:52;99093.16;;;6.13;99.28
51986;BME280;38002;53.296;6.600;2024-02-23T11:51:53;99087.59;;;6.15;100.00
51986;BME280;38002;53.296;6.600;2024-02-23T11:56:54;99088.91;;;6.19;99.96
51986;BME280;38002;53.296;6.600;2024-02-23T12:01:55;99094.78;;;6.22;100.00
51986;BME280;38002;53.296;6.600;2024-02-23T12:06:55;99102.84;;;6.30;99.67
51986;BME280;38002;53.296;6.600;2024-02-23T12:11:56;99099.06;;;6.39;99.38
51986;BME280;38002;53.296;6.600;2024-02-23T12:16:57;99084.34;;;6.50;97.85
51986;BME280;38002;53.296;6.600;2024-02-23T12:22:01;99076.34;;;6.57;96.01
51986;BME280;38002;53.296;6.600;2024-02-23T12:27:02;99086.91;;;6.66;97.14
51986;BME280;38002;53.296;6.600;2024-02-23T12:32:06;99089.06;;;6.71;97.56
51986;BME280;38002;53.296;6.600;2024-02-23T12:37:08;99091.69;;;6.79;96.56
51986;BME280;38002;53.296;6.600;2024-02-23T12:42:09;99095.72;;;6.83;96.36
51986;BME280;38002;53.296;6.600;2024-02-23T12:47:09;99082.22;;;6.83;96.79
51986;BME280;38002;53.296;6.600;2024-02-23T12:52:10;99093.03;;;6.83;96.85
51986;BME280;38002;53.296;6.600;2024-02-23T12:57:10;99095.25;;;6.79;97.24
51986;BME280;38002;53.296;6.600;2024-02-23T13:02:11;99097.94;;;6.79;96.66
51986;BME280;38002;53.296;6.600;2024-02-23T13:07:12;99108.06;;;6.77;97.07
51986;BME280;38002;53.296;6.600;2024-02-23T13:12:12;99090.69;;;6.80;97.36
51986;BME280;38002;53.296;6.600;2024-02-23T13:17:13;99091.56;;;6.95;98.10
51986;BME280;38002;53.296;6.600;2024-02-23T13:22:13;99094.19;;;7.03;97.85
51986;BME280;38002;53.296;6.600;2024-02-23T13:27:14;99098.41;;;7.06;97.50
51986;BME280;38002;53.296;6.600;2024-02-23T13:32:14;99095.69;;;7.06;97.12
51986;BME280;38002;53.296;6.600;2024-02-23T13:37:15;99097.84;;;7.10;96.71
51986;BME280;38002;53.296;6.600;2024-02-23T13:42:15;99114.19;;;7.32;96.32
51986;BME280;38002;53.296;6.600;2024-02-23T13:47:16;99097.59;;;7.35;96.15
51986;BME280;38002;53.296;6.600;2024-02-23T13:52:17;99113.81;;;7.35;95.30
51986;BME280;38002;53.296;6.600;2024-02-23T13:57:17;99131.75;;;7.36;96.29
51986;BME280;38002;53.296;6.600;2024-02-23T14:02:25;99121.72;;;7.59;94.76
51986;BME280;38002;53.296;6.600;2024-02-23T14:07:26;99133.66;;;7.79;94.11
51986;BME280;38002;53.296;6.600;2024-02-23T14:12:27;99140.72;;;7.65;94.82
51986;BME280;38002;53.296;6.600;2024-02-23T14:17:28;99145.63;;;7.47;95.83
51986;BME280;38002;53.296;6.600;2024-02-23T14:22:29;99165.56;;;7.32;96.37
51986;BME280;38002;53.296;6.600;2024-02-23T14:27:29;99194.06;;;7.19;98.95
51986;BME280;38002;53.296;6.600;2024-02-23T14:32:30;99234.44;;;6.98;97.61
51986;BME280;38002;53.296;6.600;2024-02-23T14:37:31;99221.41;;;6.40;99.17
51986;BME280;38002;53.296;6.600;2024-02-23T14:42:31;99208.59;;;5.87;99.14
51986;BME280;38002;53.296;6.600;2024-02-23T14:47:32;99219.06;;;5.58;100.00
51986;BME280;38002;53.296;6.600;2024-02-23T14:52:32;99206.94;;;5.54;100.00
51986;BME280;38002;53.296;6.600;2024-02-23T14:57:33;99232.91;;;5.63;100.00
51986;BME280;38002;53.296;6.600;2024-02-23T15:02:34;99253.78;;;5.69;100.00
51986;BME280;38002;53.296;6.600;2024-02-23T15:07:34;99247.38;;;5.86;100.00
51986;BME280;38002;53.296;6.600;2024-02-23T15:12:35;99230.16;;;6.03;100.00
51986;BME280;38002;53.296;6.600;2024-02-23T15:17:36;99251.53;;;6.13;100.00
51986;BME280;38002;53.296;6.600;2024-02-23T15:22:36;99247.97;;;6.20;100.00
51986;BME280;38002;53.296;6.600;2024-02-23T15:27:42;99255.53;;;6.33;100.00
51986;BME280;38002;53.296;6.600;2024-02-23T15:32:42;99260.41;;;6.37;100.00
51986;BME280;38002;53.296;6.600;2024-02-23T15:37:43;99268.16;;;6.32;100.00
51986;BME280;38002;53.296;6.600;2024-02-23T15:42:43;99276.47;;;6.23;100.00
51986;BME280;38002;53.296;6.600;2024-02-23T15:47:44;99279.34;;;6.13;100.00
51986;BME280;38002;53.296;6.600;2024-02-23T15:52:44;99295.72;;;6.12;100.00
51986;BME280;38002;53.296;6.600;2024-02-23T15:57:45;99318.50;;;6.09;100.00
51986;BME280;38002;53.296;6.600;2024-02-23T16:02:45;99334.88;;;6.08;100.00
51986;BME280;38002;53.296;6.600;2024-02-23T16:07:46;99332.34;;;5.98;100.00
51986;BME280;38002;53.296;6.600;2024-02-23T16:12:51;99337.03;;;5.80;100.00
51986;BME280;38002;53.296;6.600;2024-02-23T16:17:52;99323.22;;;5.67;100.00
51986;BME280;38002;53.296;6.600;2024-02-23T16:22:53;99334.16;;;5.49;100.00
51986;BME280;38002;53.296;6.600;2024-02-23T16:27:53;99339.03;;;5.45;100.00
51986;BME280;38002;53.296;6.600;2024-02-23T16:32:54;99347.63;;;5.41;100.00
51986;BME280;38002;53.296;6.600;2024-02-23T16:37:54;99345.63;;;5.43;100.00
51986;BME280;38002;53.296;6.600;2024-02-23T16:42:56;99357.75;;;5.47;100.00
51986;BME280;38002;53.296;6.600;2024-02-23T16:47:56;99348.63;;;5.48;100.00
51986;BME280;38002;53.296;6.600;2024-02-23T16:52:57;99361.97;;;5.49;100.00
51986;BME280;38002;53.296;6.600;2024-02-23T16:57:58;99371.06;;;5.48;100.00
51986;BME280;38002;53.296;6.600;2024-02-23T17:02:58;99384.53;;;5.57;100.00
51986;BME280;38002;53.296;6.600;2024-02-23T17:08:00;99383.03;;;5.62;100.00
51986;BME280;38002;53.296;6.600;2024-02-23T17:13:01;99402.09;;;5.69;100.00
51986;BME280;38002;53.296;6.600;2024-02-23T17:18:01;99417.78;;;5.73;100.00
51986;BME280;38002;53.296;6.600;2024-02-23T17:23:02;99424.34;;;5.79;100.00
51986;BME280;38002;53.296;6.600;2024-02-23T17:28:03;99444.56;;;5.83;100.00
51986;BME280;38002;53.296;6.600;2024-02-23T17:33:04;99433.31;;;5.87;100.00
51986;BME280;38002;53.296;6.600;2024-02-23T17:38:04;99428.63;;;5.89;100.00
51986;BME280;38002;53.296;6.600;2024-02-23T17:43:05;99455.44;;;5.91;100.00
51986;BME280;38002;53.296;6.600;2024-02-23T17:48:05;99456.94;;;5.93;100.00
51986;BME280;38002;53.296;6.600;2024-02-23T17:53:06;99472.78;;;5.88;100.00
51986;BME280;38002;53.296;6.600;2024-02-23T17:58:06;99470.19;;;5.79;100.00
51986;BME280;38002;53.296;6.600;2024-02-23T18:03:07;99451.81;;;5.74;100.00
51986;BME280;38002;53.296;6.600;2024-02-23T18:08:07;99488.06;;;5.72;100.00
51986;BME280;38002;53.296;6.600;2024-02-23T18:13:08;99490.41;;;5.67;100.00
51986;BME280;38002;53.296;6.600;2024-02-23T18:18:08;99496.78;;;5.66;100.00
51986;BME280;38002;53.296;6.600;2024-02-23T18:23:09;99497.13;;;5.63;100.00
51986;BME280;38002;53.296;6.600;2024-02-23T18:28:09;99502.50;;;5.55;100.00
51986;BME280;38002;53.296;6.600;2024-02-23T18:33:10;99498.28;;;5.52;100.00
51986;BME280;38002;53.296;6.600;2024-02-23T18:38:10;99508.22;;;5.52;100.00
51986;BME280;38002;53.296;6.600;2024-02-23T18:43:11;99503.16;;;5.48;100.00
51986;BME280;38002;53.296;6.600;2024-02-23T18:48:13;99510.22;;;5.41;100.00
51986;BME280;38002;53.296;6.600;2024-02-23T18:53:13;99512.88;;;5.33;100.00
51986;BME280;38002;53.296;6.600;2024-02-23T18:58:14;99519.75;;;5.28;100.00
51986;BME280;38002;53.296;6.600;2024-02-23T19:03:14;99515.00;;;5.22;100.00
51986;BME280;38002;53.296;6.600;2024-02-23T19:08:15;99511.78;;;5.18;100.00
51986;BME280;38002;53.296;6.600;2024-02-23T19:13:15;99505.72;;;5.16;100.00
51986;BME280;38002;53.296;6.600;2024-02-23T19:18:17;99516.16;;;5.19;100.00
51986;BME280;38002;53.296;6.600;2024-02-23T19:23:17;99519.84;;;5.18;100.00
51986;BME280;38002;53.296;6.600;2024-02-23T19:28:18;99514.47;;;5.18;100.00
51986;BME280;38002;53.296;6.600;2024-02-23T19:33:18;99519.84;;;5.18;100.00
51986;BME280;38002;53.296;6.600;2024-02-23T19:38:19;99519.03;;;5.18;100.00
51986;BME280;38002;53.296;6.600;2024-02-23T19:43:20;99519.53;;;5.13;100.00
51986;BME280;38002;53.296;6.600;2024-02-23T19:48:21;99528.41;;;5.14;100.00
51986;BME280;38002;53.296;6.600;2024-02-23T19:53:21;99535.34;;;5.16;100.00
51986;BME280;38002;53.296;6.600;2024-02-23T19:58:22;99541.78;;;5.23;100.00
51986;BME280;38002;53.296;6.600;2024-02-23T20:03:22;99534.91;;;5.29;100.00
51986;BME280;38002;53.296;6.600;2024-02-23T20:08:23;99543.50;;;5.32;100.00
51986;BME280;38002;53.296;6.600;2024-02-23T20:13:23;99547.75;;;5.35;100.00
51986;BME280;38002;53.296;6.600;2024-02-23T20:18:24;99553.97;;;5.35;100.00
51986;BME280;38002;53.296;6.600;2024-02-23T20:23:24;99556.84;;;5.34;100.00
51986;BME280;38002;53.296;6.600;2024-02-23T20:28:25;99565.06;;;5.32;100.00
51986;BME280;38002;53.296;6.600;2024-02-23T20:33:25;99573.16;;;5.32;100.00
51986;BME280;38002;53.296;6.600;2024-02-23T20:38:25;99578.56;;;5.32;100.00
51986;BME280;38002;53.296;6.600;2024-02-23T20:43:26;99580.41;;;5.32;100.00
51986;BME280;38002;53.296;6.600;2024-02-23T20:48:26;99589.47;;;5.31;100.00
51986;BME280;38002;53.296;6.600;2024-02-23T20:53:27;99595.72;;;5.31;100.00
51986;BME280;38002;53.296;6.600;2024-02-23T20:58:27;99598.59;;;5.30;100.00
51986;BME280;38002;53.296;6.600;2024-02-23T21:03:28;99587.97;;;5.28;100.00
51986;BME280;38002;53.296;6.600;2024-02-23T21:08:28;99600.44;;;5.29;100.00
51986;BME280;38002;53.296;6.600;2024-02-23T21:13:29;99604.47;;;5.25;100.00
51986;BME280;38002;53.296;6.600;2024-02-23T21:18:29;99605.13;;;5.27;100.00
51986;BME280;38002;53.296;6.600;2024-02-23T21:23:30;99608.19;;;5.32;100.00
51986;BME280;38002;53.296;6.600;2024-02-23T21:28:31;99595.25;;;5.36;100.00
51986;BME280;38002;53.296;6.600;2024-02-23T21:33:32;99612.00;;;5.47;100.00
51986;BME280;38002;53.296;6.600;2024-02-23T21:38:32;99612.19;;;5.54;100.00
51986;BME280;38002;53.296;6.600;2024-02-23T21:43:34;99601.09;;;5.57;100.00
51986;BME280;38002;53.296;6.600;2024-02-23T21:48:35;99594.03;;;5.56;100.00
51986;BME280;38002;53.296;6.600;2024-02-23T21:53:36;99594.19;;;5.55;100.00
51986;BME280;38002;53.296;6.600;2024-02-23T21:58:37;99594.50;;;5.52;100.00
51986;BME280;38002;53.296;6.600;2024-02-23T22:03:38;99581.81;;;5.44;100.00
51986;BME280;38002;53.296;6.600;2024-02-23T22:08:39;99584.97;;;5.39;100.00
51986;BME280;38002;53.296;6.600;2024-02-23T22:13:43;99583.63;;;5.35;100.00
51986;BME280;38002;53.296;6.600;2024-02-23T22:18:43;99584.28;;;5.29;100.00
51986;BME280;38002;53.296;6.600;2024-02-23T22:23:44;99587.13;;;5.28;100.00
51986;BME280;38002;53.296;6.600;2024-02-23T22:28:44;99596.19;;;5.27;100.00
51986;BME280;38002;53.296;6.600;2024-02-23T22:33:45;99594.69;;;5.24;100.00
51986;BME280;38002;53.296;6.600;2024-02-23T22:38:45;99601.75;;;5.25;100.00
51986;BME280;38002;53.296;6.600;2024-02-23T22:43:46;99605.47;;;5.24;100.00
51986;BME280;38002;53.296;6.600;2024-02-23T22:48:46;99604.75;;;5.22;100.00
51986;BME280;38002;53.296;6.600;2024-02-23T22:53:46;99602.06;;;5.22;100.00
51986;BME280;38002;53.296;6.600;2024-02-23T22:58:47;99597.84;;;5.20;100.00
51986;BME280;38002;53.296;6.600;2024-02-23T23:03:47;99605.94;;;5.20;100.00
51986;BME280;38002;53.296;6.600;2024-02-23T23:08:48;99613.16;;;5.19;100.00
51986;BME280;38002;53.296;6.600;2024-02-23T23:13:48;99606.94;;;5.19;100.00
51986;BME280;38002;53.296;6.600;2024-02-23T23:18:49;99611.47;;;5.18;100.00
51986;BME280;38002;53.296;6.600;2024-02-23T23:23:50;99604.09;;;5.20;100.00
51986;BME280;38002;53.296;6.600;2024-02-23T23:28:51;99608.63;;;5.20;100.00
51986;BME280;38002;53.296;6.600;2024-02-23T23:33:51;99613.16;;;5.19;100.00
51986;BME280;38002;53.296;6.600;2024-02-23T23:38:53;99622.09;;;5.20;100.00
51986;BME280;38002;53.296;6.600;2024-02-23T23:43:53;99622.09;;;5.20;100.00
51986;BME280;38002;53.296;6.600;2024-02-23T23:48:54;99624.28;;;5.16;100.00
51986;BME280;38002;53.296;6.600;2024-02-23T23:53:54;99617.88;;;5.17;100.00
51986;BME280;38002;53.296;6.600;2024-02-23T23:58:58;99624.28;;;5.16;100.00
